CheckWX is a tool to help pilots better visualize weather data.  It is not intended as a substitute for an official pre-flight weather briefing.

15:24:20 UTC

FKKD TAF
Douala International Airport
Douala, Cameroon
TAF FKKD 191100Z 1912/2018 VRB06KT 9999 BKN016 FEW020CB PROB30 1916/1920 TS TEMPO 2004/2007 3000 BR

Nov-19@
12:00 UTC

Nov-19 @ 12:00 UTC

Nov-20@
18:00 UTC

Nov-20 @ 18:00 UTC

TAF FKKD 191100Z 1912/2018 VRB06KT 9999 BKN016 FEW020CB
Wind
  • Variable at 6 KTS
Cloud Levels
  • Broken at 1,600' AGL
  • Few at 2,000' AGL

Nov-19@
16:00 UTC

Nov-19 @ 16:00 UTC

Nov-19@
20:00 UTC

Nov-19 @ 20:00 UTC

PROB30 1916/1920 TS

Probable - 30% Likelihood

Probable - 30% Likelihood during this time.

Conditions
Thunderstorm

Nov-20@
04:00 UTC

Nov-20 @ 04:00 UTC

Nov-20@
07:00 UTC

Nov-20 @ 07:00 UTC

TEMPO 2004/2007 3000 BR

Temporary

Temporary Changes expected for less than half the time period

Conditions
Mist